createdAt,value
2024-02-26T06:14:45.835Z,10.10
2024-02-26T06:17:58.725Z,10.04
2024-02-26T06:21:14.225Z,9.78
2024-02-26T06:24:26.969Z,9.76
2024-02-26T06:27:39.630Z,10.05
2024-02-26T06:30:53.599Z,10.17
2024-02-26T06:34:06.269Z,10.12
2024-02-26T06:37:19.207Z,9.93
2024-02-26T06:40:31.679Z,9.90
2024-02-26T06:43:44.370Z,10.09
2024-02-26T06:46:57.782Z,10.04
2024-02-26T06:50:12.527Z,9.89
2024-02-26T06:53:25.296Z,9.88
2024-02-26T06:56:38.008Z,9.86
2024-02-26T06:59:50.812Z,9.93
2024-02-26T07:03:03.642Z,10.11
2024-02-26T07:06:16.324Z,10.44
2024-02-26T07:09:29.170Z,10.37
2024-02-26T07:12:41.695Z,10.36
2024-02-26T07:15:54.442Z,10.74
2024-02-26T07:19:06.984Z,10.86
2024-02-26T07:22:19.757Z,10.89
2024-02-26T07:25:33.232Z,11.08
2024-02-26T07:28:46.005Z,11.38
2024-02-26T07:31:59.193Z,11.26
2024-02-26T07:35:11.977Z,11.20
2024-02-26T07:38:32.414Z,11.20
2024-02-26T07:41:55.042Z,11.50
2024-02-26T07:45:08.042Z,11.30
2024-02-26T07:48:20.797Z,11.56
2024-02-26T07:51:33.263Z,11.59
2024-02-26T07:54:45.985Z,11.95
2024-02-26T07:57:58.396Z,12.08
2024-02-26T08:01:14.755Z,12.19
2024-02-26T08:04:28.382Z,12.09
2024-02-26T08:07:43.727Z,11.98
2024-02-26T08:10:56.620Z,12.17
2024-02-26T08:14:09.122Z,12.28
2024-02-26T08:17:21.825Z,12.32
2024-02-26T08:20:34.256Z,12.57
2024-02-26T08:23:47.063Z,12.79
2024-02-26T08:26:59.582Z,12.77
2024-02-26T08:30:15.494Z,12.80
2024-02-26T08:33:28.313Z,13.02
2024-02-26T08:36:41.128Z,13.16
2024-02-26T08:39:53.685Z,13.35
2024-02-26T08:43:06.544Z,13.41
2024-02-26T08:46:19.181Z,13.62
2024-02-26T08:49:32.682Z,13.86
2024-02-26T08:52:47.412Z,14.15
2024-02-26T08:56:00.154Z,14.25
2024-02-26T08:59:12.667Z,14.28
2024-02-26T09:02:25.451Z,13.93
2024-02-26T09:05:37.888Z,14.35
2024-02-26T09:08:50.619Z,14.30
2024-02-26T09:12:03.769Z,14.55
2024-02-26T09:15:16.773Z,13.60
2024-02-26T09:18:30.569Z,13.63
2024-02-26T09:21:44.690Z,14.19
2024-02-26T09:24:57.131Z,14.29
2024-02-26T09:28:09.907Z,14.44
2024-02-26T09:31:22.303Z,14.95
2024-02-26T09:34:36.174Z,15.11
2024-02-26T09:37:50.183Z,15.39
2024-02-26T09:41:06.328Z,14.80
2024-02-26T09:44:22.349Z,15.15
2024-02-26T09:47:35.169Z,14.81
2024-02-26T09:50:48.013Z,14.67
2024-02-26T09:54:02.830Z,14.90
2024-02-26T09:57:18.115Z,15.01
2024-02-26T10:00:35.153Z,14.57
2024-02-26T10:03:51.698Z,14.05
2024-02-26T10:07:05.138Z,14.30
2024-02-26T10:10:18.713Z,14.74
2024-02-26T10:13:31.149Z,14.60
2024-02-26T10:16:47.924Z,14.35
2024-02-26T10:20:17.822Z,14.78
2024-02-26T10:23:30.726Z,15.08
2024-02-26T10:26:47.716Z,15.34
2024-02-26T10:30:20.348Z,15.48
2024-02-26T10:33:38.549Z,15.49
2024-02-26T10:36:53.765Z,15.57
2024-02-26T10:40:10.714Z,15.58
2024-02-26T10:43:23.412Z,15.40
2024-02-26T10:46:35.943Z,15.75
2024-02-26T10:49:51.351Z,16.07
2024-02-26T10:53:04.143Z,16.44
2024-02-26T10:56:16.835Z,16.59
2024-02-26T10:59:30.575Z,16.62
2024-02-26T11:02:43.278Z,16.61
2024-02-26T11:05:55.808Z,16.56
2024-02-26T11:09:09.462Z,16.72
2024-02-26T11:12:22.478Z,16.52
2024-02-26T11:15:35.471Z,16.84
2024-02-26T11:18:50.960Z,16.41
2024-02-26T11:22:15.780Z,17.01
2024-02-26T11:25:36.545Z,16.78
2024-02-26T11:28:52.588Z,17.33
2024-02-26T11:32:06.484Z,17.68
2024-02-26T11:35:19.890Z,17.63
2024-02-26T11:38:35.438Z,16.99
2024-02-26T11:41:48.297Z,16.96
2024-02-26T11:45:02.179Z,17.15
2024-02-26T11:48:16.431Z,16.99
2024-02-26T11:51:29.635Z,17.10
2024-02-26T11:54:58.173Z,17.12
2024-02-26T11:58:10.834Z,16.52
2024-02-26T12:01:40.208Z,16.74
2024-02-26T12:04:53.071Z,16.78
2024-02-26T12:08:09.161Z,16.54
2024-02-26T12:11:22.844Z,16.85
2024-02-26T12:14:43.229Z,16.52
2024-02-26T12:17:57.153Z,16.29
2024-02-26T12:21:15.938Z,16.38
2024-02-26T12:24:30.011Z,16.43
2024-02-26T12:27:43.720Z,15.96
2024-02-26T12:30:56.501Z,16.01
2024-02-26T12:34:11.145Z,15.89
2024-02-26T12:37:23.934Z,16.34
2024-02-26T12:40:36.545Z,16.92
2024-02-26T12:43:52.171Z,17.15
2024-02-26T12:47:05.423Z,17.17
2024-02-26T12:50:19.509Z,17.56
2024-02-26T12:53:32.941Z,17.61
2024-02-26T12:56:45.863Z,17.65
2024-02-26T12:59:58.491Z,17.86
2024-02-26T13:03:11.252Z,17.82
2024-02-26T13:06:24.420Z,18.12
2024-02-26T13:09:37.433Z,18.20
2024-02-26T13:12:56.570Z,17.99
2024-02-26T13:16:15.375Z,18.13
2024-02-26T13:19:29.259Z,18.21
2024-02-26T13:22:42.038Z,18.28
2024-02-26T13:25:57.515Z,18.99
2024-02-26T13:29:10.188Z,18.81
2024-02-26T13:32:22.584Z,18.98
2024-02-26T13:35:36.193Z,18.72
2024-02-26T13:38:56.026Z,18.95
2024-02-26T13:42:09.116Z,19.09
2024-02-26T13:45:21.607Z,19.42
2024-02-26T13:48:34.459Z,18.78
2024-02-26T13:51:47.007Z,19.32
2024-02-26T13:55:00.574Z,18.13
2024-02-26T13:58:14.747Z,18.61
2024-02-26T14:01:27.591Z,18.93
2024-02-26T14:04:40.383Z,19.01
2024-02-26T14:07:54.239Z,18.85
2024-02-26T14:11:07.305Z,19.19
2024-02-26T14:14:19.776Z,19.19
2024-02-26T14:17:32.450Z,19.36
2024-02-26T14:20:45.775Z,18.88
2024-02-26T14:23:58.505Z,18.71
2024-02-26T14:27:11.698Z,18.76
2024-02-26T14:30:24.530Z,18.40
2024-02-26T14:33:39.953Z,18.03
2024-02-26T14:36:52.743Z,18.08
2024-02-26T14:40:06.987Z,18.28
2024-02-26T14:43:19.646Z,18.61
2024-02-26T14:46:32.112Z,18.28
2024-02-26T14:49:44.860Z,19.40
2024-02-26T14:52:57.350Z,19.24
2024-02-26T14:56:10.647Z,18.78
2024-02-26T14:59:23.062Z,18.49
2024-02-26T15:02:35.756Z,18.31
2024-02-26T15:05:48.211Z,17.88
2024-02-26T15:09:01.924Z,17.63
2024-02-26T15:12:19.053Z,17.31
2024-02-26T15:15:32.546Z,16.87
2024-02-26T15:18:45.090Z,16.95
2024-02-26T15:21:57.976Z,16.94
2024-02-26T15:25:12.918Z,16.64
2024-02-26T15:28:29.884Z,16.58
2024-02-26T15:31:43.025Z,16.43
2024-02-26T15:34:56.094Z,16.26
2024-02-26T15:38:08.596Z,16.16
2024-02-26T15:41:21.309Z,15.90
2024-02-26T15:44:33.717Z,15.81
2024-02-26T15:47:48.806Z,15.72
2024-02-26T15:51:01.325Z,15.59
2024-02-26T15:54:14.076Z,15.29
2024-02-26T15:57:26.493Z,14.87
2024-02-26T16:00:43.248Z,14.72
2024-02-26T16:03:57.091Z,14.61
2024-02-26T16:07:14.152Z,14.49
2024-02-26T16:10:28.699Z,14.44
2024-02-26T16:13:41.263Z,14.41
2024-02-26T16:17:35.122Z,14.42
2024-02-26T16:20:48.450Z,14.09
2024-02-26T16:24:01.536Z,13.81
2024-02-26T16:27:14.291Z,13.86
2024-02-26T16:30:26.960Z,13.89
2024-02-26T16:33:39.879Z,13.81
2024-02-26T16:36:52.627Z,13.66
2024-02-26T16:40:06.175Z,13.48
2024-02-26T16:43:18.893Z,13.35
2024-02-26T16:46:31.352Z,13.22
2024-02-26T16:49:44.167Z,13.05
2024-02-26T16:52:56.928Z,13.15
2024-02-26T16:56:12.512Z,13.15
2024-02-26T16:59:29.315Z,13.00
2024-02-26T17:02:42.447Z,12.95
2024-02-26T17:05:54.946Z,13.03
2024-02-26T17:09:09.192Z,13.14
2024-02-26T17:12:23.446Z,13.20
2024-02-26T17:15:36.948Z,13.18
2024-02-26T17:18:49.454Z,13.19
2024-02-26T17:22:02.188Z,13.10
2024-02-26T17:25:15.066Z,13.04
2024-02-26T17:28:27.705Z,13.06
2024-02-26T17:31:43.625Z,13.10
2024-02-26T17:34:56.828Z,13.12
2024-02-26T17:38:09.377Z,13.20
2024-02-26T17:41:23.435Z,13.19
2024-02-26T17:44:37.712Z,13.30
2024-02-26T17:47:52.029Z,13.23
2024-02-26T17:51:07.169Z,13.00
2024-02-26T17:54:20.132Z,12.88
2024-02-26T17:57:32.712Z,12.69
2024-02-26T18:00:47.668Z,12.57
2024-02-26T18:04:00.490Z,12.40
2024-02-26T18:07:14.219Z,12.24
2024-02-26T18:10:26.958Z,12.12
2024-02-26T18:13:42.596Z,12.05
2024-02-26T18:16:55.274Z,11.96
2024-02-26T18:20:09.357Z,11.86
2024-02-26T18:23:21.989Z,11.74
2024-02-26T18:26:35.225Z,11.68
2024-02-26T18:29:47.921Z,11.58
2024-02-26T18:33:00.623Z,11.59
2024-02-26T18:36:13.721Z,11.57
2024-02-26T18:39:26.318Z,11.52
2024-02-26T18:42:40.700Z,11.49
2024-02-26T18:45:53.286Z,11.43
2024-02-26T18:49:06.056Z,11.38
2024-02-26T18:52:18.466Z,11.28
2024-02-26T18:55:31.347Z,11.33
2024-02-26T18:58:44.065Z,11.12
2024-02-26T19:01:56.764Z,11.07
2024-02-26T19:05:09.358Z,11.04
2024-02-26T19:08:22.228Z,10.98
2024-02-26T19:11:34.714Z,10.89
2024-02-26T19:14:47.441Z,10.78
2024-02-26T19:18:01.694Z,10.76
2024-02-26T19:21:14.504Z,10.89
2024-02-26T19:24:26.979Z,10.90
2024-02-26T19:27:39.776Z,10.73
2024-02-26T19:30:52.252Z,10.64
2024-02-26T19:34:05.123Z,10.47
2024-02-26T19:37:17.597Z,10.52
2024-02-26T19:40:30.523Z,10.51
2024-02-26T19:43:42.920Z,10.42
2024-02-26T19:46:55.593Z,10.33
2024-02-26T19:50:08.785Z,10.33
2024-02-26T19:53:21.785Z,10.31
2024-02-26T19:56:35.791Z,10.27
2024-02-26T19:59:48.418Z,10.21
2024-02-26T20:03:00.845Z,10.15
2024-02-26T20:06:14.936Z,10.14
2024-02-26T20:09:31.408Z,10.14
2024-02-26T20:12:44.383Z,10.21
2024-02-26T20:15:56.839Z,10.15
2024-02-26T20:19:10.430Z,10.16
2024-02-26T20:22:22.876Z,10.21
2024-02-26T20:25:36.477Z,10.21
2024-02-26T20:28:48.893Z,10.24
2024-02-26T20:32:01.600Z,10.34
2024-02-26T20:35:14.048Z,10.31
2024-02-26T20:38:26.703Z,10.55
2024-02-26T20:41:39.151Z,10.43
2024-02-26T20:44:52.253Z,10.07
2024-02-26T20:48:05.210Z,10.34
2024-02-26T20:51:18.033Z,10.55
2024-02-26T20:54:30.574Z,10.38
2024-02-26T20:57:43.974Z,9.96
2024-02-26T21:00:57.435Z,9.94
2024-02-26T21:04:10.178Z,9.74
2024-02-26T21:07:22.704Z,9.85
2024-02-26T21:10:35.686Z,9.75
2024-02-26T21:13:48.178Z,9.82
2024-02-26T21:17:00.892Z,10.09
2024-02-26T21:20:15.685Z,10.12
2024-02-26T21:23:28.512Z,10.16
2024-02-26T21:26:40.977Z,10.43
2024-02-26T21:29:53.716Z,10.50
2024-02-26T21:33:06.136Z,10.58
2024-02-26T21:36:19.156Z,10.56
2024-02-26T21:39:31.658Z,10.46
2024-02-26T21:42:44.384Z,10.47
2024-02-26T21:45:56.747Z,10.39
2024-02-26T21:49:09.500Z,10.38
2024-02-26T21:52:21.930Z,10.25
2024-02-26T21:55:35.123Z,10.16
2024-02-26T21:58:47.846Z,9.98
2024-02-26T22:02:00.563Z,10.05
2024-02-26T22:05:13.209Z,10.05
2024-02-26T22:08:25.849Z,10.01
2024-02-26T22:11:41.566Z,10.03
2024-02-26T22:14:54.230Z,10.10
2024-02-26T22:18:07.513Z,10.09
2024-02-26T22:21:19.877Z,10.05
2024-02-26T22:24:32.592Z,9.90
2024-02-26T22:27:47.021Z,9.69
2024-02-26T22:30:59.678Z,9.76
2024-02-26T22:34:12.215Z,9.68
2024-02-26T22:37:24.998Z,9.83
2024-02-26T22:40:37.897Z,9.94
2024-02-26T22:43:50.552Z,9.86
2024-02-26T22:47:02.931Z,9.90
2024-02-26T22:50:15.896Z,9.87
2024-02-26T22:53:28.265Z,9.88
2024-02-26T22:56:40.914Z,9.84
2024-02-26T22:59:53.338Z,9.84
2024-02-26T23:03:06.195Z,9.88
2024-02-26T23:06:18.729Z,9.79
2024-02-26T23:09:31.470Z,9.76
2024-02-26T23:12:44.006Z,9.82
2024-02-26T23:15:56.713Z,9.65
2024-02-26T23:19:09.135Z,9.63
2024-02-26T23:22:21.892Z,9.50
2024-02-26T23:25:34.685Z,9.59
2024-02-26T23:28:47.544Z,9.72
2024-02-26T23:31:59.944Z,9.80
2024-02-26T23:35:12.762Z,9.87
2024-02-26T23:38:25.197Z,9.79
2024-02-26T23:41:38.350Z,9.60
2024-02-26T23:44:52.617Z,9.53
2024-02-26T23:48:05.882Z,9.37
2024-02-26T23:51:18.390Z,9.54
2024-02-26T23:54:31.291Z,9.42
2024-02-26T23:57:43.747Z,9.41
